createdAt,value
2024-03-08T00:00:07.198Z,100.00
2024-03-08T00:02:33.725Z,100.00
2024-03-08T00:05:00.264Z,100.00
2024-03-08T00:07:29.471Z,100.00
2024-03-08T00:09:58.728Z,100.00
2024-03-08T00:12:25.448Z,100.00
2024-03-08T00:14:56.175Z,100.00
2024-03-08T00:17:22.928Z,100.00
2024-03-08T00:19:49.716Z,100.00
2024-03-08T00:22:16.342Z,100.00
2024-03-08T00:24:42.893Z,100.00
2024-03-08T00:27:09.572Z,100.00
2024-03-08T00:29:36.376Z,100.00
2024-03-08T00:32:04.527Z,100.00
2024-03-08T00:34:31.175Z,100.00
2024-03-08T00:36:57.706Z,100.00
2024-03-08T00:39:24.340Z,100.00
2024-03-08T00:41:50.878Z,100.00
2024-03-08T00:44:17.378Z,100.00
2024-03-08T00:46:43.916Z,100.00
2024-03-08T00:49:11.745Z,100.00
2024-03-08T00:51:38.274Z,100.00
2024-03-08T00:54:04.923Z,100.00
2024-03-08T00:56:31.486Z,100.00
2024-03-08T00:58:58.052Z,100.00
2024-03-08T01:01:24.647Z,100.00
2024-03-08T01:03:51.171Z,100.00
2024-03-08T01:06:19.108Z,100.00
2024-03-08T01:08:45.696Z,100.00
2024-03-08T01:11:14.232Z,100.00
2024-03-08T01:13:40.811Z,100.00
2024-03-08T01:16:07.607Z,100.00
2024-03-08T01:18:34.468Z,100.00
2024-03-08T01:21:01.185Z,100.00
2024-03-08T01:23:29.184Z,100.00
2024-03-08T01:25:55.695Z,100.00
2024-03-08T01:28:22.217Z,100.00
2024-03-08T01:30:48.679Z,100.00
2024-03-08T01:33:15.380Z,100.00
2024-03-08T01:35:41.987Z,100.00
2024-03-08T01:38:08.535Z,100.00
2024-03-08T01:40:36.384Z,100.00
2024-03-08T01:43:18.799Z,100.00
2024-03-08T01:45:45.557Z,100.00
2024-03-08T01:48:12.191Z,100.00
2024-03-08T01:50:39.039Z,100.00
2024-03-08T01:53:06.463Z,100.00
2024-03-08T01:55:33.224Z,100.00
2024-03-08T01:58:01.925Z,100.00
2024-03-08T02:00:28.625Z,100.00
2024-03-08T02:02:55.535Z,100.00
2024-03-08T02:05:22.552Z,100.00
2024-03-08T02:07:49.060Z,100.00
2024-03-08T02:10:15.894Z,100.00
2024-03-08T02:12:42.744Z,100.00
2024-03-08T02:15:10.794Z,100.00
2024-03-08T02:17:37.481Z,100.00
2024-03-08T02:20:04.633Z,100.00
2024-03-08T02:22:32.695Z,100.00
2024-03-08T02:24:59.808Z,100.00
2024-03-08T02:27:29.053Z,100.00
2024-03-08T02:29:56.590Z,100.00
2024-03-08T02:32:23.183Z,100.00
2024-03-08T02:34:49.747Z,100.00
2024-03-08T02:37:16.388Z,100.00
2024-03-08T02:39:44.369Z,100.00
2024-03-08T02:42:11.134Z,100.00
2024-03-08T02:44:37.800Z,100.00
2024-03-08T02:47:04.616Z,100.00
2024-03-08T02:49:31.245Z,100.00
2024-03-08T02:51:57.779Z,100.00
2024-03-08T02:54:24.274Z,100.00
2024-03-08T02:56:52.443Z,100.00
2024-03-08T02:59:19.095Z,100.00
2024-03-08T03:01:45.686Z,100.00
2024-03-08T03:04:12.184Z,100.00
2024-03-08T03:06:38.723Z,100.00
2024-03-08T03:09:05.283Z,100.00
2024-03-08T03:11:31.918Z,100.00
2024-03-08T03:13:59.847Z,100.00
2024-03-08T03:16:26.635Z,100.00
2024-03-08T03:18:53.224Z,100.00
2024-03-08T03:21:19.918Z,100.00
2024-03-08T03:23:48.936Z,100.00
2024-03-08T03:26:15.695Z,100.00
2024-03-08T03:28:42.219Z,100.00
2024-03-08T03:31:10.695Z,100.00
2024-03-08T03:33:37.792Z,100.00
2024-03-08T03:36:04.981Z,100.00
2024-03-08T03:38:31.925Z,100.00
2024-03-08T03:40:58.478Z,100.00
2024-03-08T03:43:25.058Z,100.00
2024-03-08T03:45:51.595Z,100.00
2024-03-08T03:48:19.691Z,100.00
2024-03-08T03:50:46.425Z,100.00
2024-03-08T03:53:12.966Z,100.00
2024-03-08T03:55:39.976Z,100.00
2024-03-08T03:58:07.574Z,100.00
2024-03-08T04:00:36.506Z,100.00
2024-03-08T04:03:03.257Z,100.00
2024-03-08T04:05:31.254Z,100.00
2024-03-08T04:07:58.084Z,100.00
2024-03-08T04:10:24.928Z,100.00
2024-03-08T04:12:51.597Z,100.00
2024-03-08T04:15:18.342Z,100.00
2024-03-08T04:17:45.153Z,100.00
2024-03-08T04:20:12.186Z,100.00
2024-03-08T04:22:40.578Z,100.00
2024-03-08T04:25:08.168Z,100.00
2024-03-08T04:27:35.002Z,100.00
2024-03-08T04:30:01.946Z,100.00
2024-03-08T04:32:28.873Z,100.00
2024-03-08T04:34:55.640Z,100.00
2024-03-08T04:37:22.253Z,100.00
2024-03-08T04:39:50.399Z,100.00
2024-03-08T04:42:17.481Z,100.00
2024-03-08T04:44:44.167Z,100.00
2024-03-08T04:47:13.736Z,100.00
2024-03-08T04:49:40.384Z,100.00
2024-03-08T04:52:07.588Z,100.00
2024-03-08T04:54:34.262Z,100.00
2024-03-08T04:57:03.717Z,100.00
2024-03-08T04:59:31.901Z,100.00
2024-03-08T05:01:58.489Z,100.00
2024-03-08T05:04:25.136Z,100.00
2024-03-08T05:06:51.792Z,100.00
2024-03-08T05:09:18.568Z,100.00
2024-03-08T05:11:45.793Z,100.00
2024-03-08T05:14:14.331Z,100.00
2024-03-08T05:16:40.889Z,100.00
2024-03-08T05:19:07.497Z,100.00
2024-03-08T05:21:34.180Z,100.00
2024-03-08T05:24:16.402Z,100.00
2024-03-08T05:26:43.337Z,100.00
2024-03-08T05:29:14.828Z,100.00
2024-03-08T05:31:51.640Z,100.00
2024-03-08T05:34:18.487Z,100.00
2024-03-08T05:36:45.267Z,100.00
2024-03-08T05:39:12.336Z,100.00
2024-03-08T05:41:39.348Z,100.00
2024-03-08T05:44:38.807Z,100.00
2024-03-08T05:47:07.373Z,100.00
2024-03-08T05:49:46.404Z,100.00
2024-03-08T05:52:24.158Z,100.00
2024-03-08T05:54:53.961Z,100.00
2024-03-08T05:57:20.662Z,100.00
2024-03-08T05:59:50.357Z,100.00
2024-03-08T06:02:18.640Z,100.00
2024-03-08T06:04:45.568Z,100.00
2024-03-08T06:07:12.222Z,100.00
2024-03-08T06:09:42.022Z,100.00
2024-03-08T06:12:08.946Z,100.00
2024-03-08T06:14:35.846Z,100.00
2024-03-08T06:17:05.402Z,100.00
2024-03-08T06:19:33.468Z,100.00
2024-03-08T06:22:00.288Z,100.00
2024-03-08T06:24:27.010Z,100.00
2024-03-08T06:26:53.660Z,100.00
2024-03-08T06:29:22.933Z,100.00
2024-03-08T06:31:49.988Z,100.00
2024-03-08T06:34:19.225Z,100.00
2024-03-08T06:36:47.656Z,100.00
2024-03-08T06:39:14.509Z,100.00
2024-03-08T06:41:41.480Z,100.00
2024-03-08T06:44:11.054Z,100.00
2024-03-08T06:46:37.690Z,100.00
2024-03-08T06:49:04.468Z,100.00
2024-03-08T06:51:31.583Z,100.00
2024-03-08T06:54:00.672Z,100.00
2024-03-08T06:56:27.344Z,100.00
2024-03-08T06:58:54.068Z,100.00
2024-03-08T07:01:21.096Z,100.00
2024-03-08T07:03:49.968Z,100.00
2024-03-08T07:06:16.830Z,100.00
2024-03-08T07:08:44.143Z,100.00
2024-03-08T07:11:15.507Z,100.00
2024-03-08T07:13:52.433Z,100.00
2024-03-08T07:16:18.982Z,100.00
2024-03-08T07:18:45.691Z,100.00
2024-03-08T07:21:12.828Z,100.00
2024-03-08T07:23:39.614Z,100.00
2024-03-08T07:26:06.599Z,100.00
2024-03-08T07:28:38.432Z,100.00
2024-03-08T07:31:05.012Z,100.00
2024-03-08T07:33:31.669Z,100.00
2024-03-08T07:35:58.355Z,100.00
2024-03-08T07:38:24.904Z,100.00
2024-03-08T07:40:51.489Z,100.00
2024-03-08T07:43:21.238Z,100.00
2024-03-08T07:45:51.400Z,100.00
2024-03-08T07:48:18.087Z,100.00
2024-03-08T07:50:44.856Z,100.00
2024-03-08T07:53:14.316Z,100.00
2024-03-08T07:55:41.376Z,100.00
2024-03-08T07:58:17.675Z,100.00
2024-03-08T08:00:44.912Z,100.00
2024-03-08T08:03:13.114Z,100.00
2024-03-08T08:05:40.406Z,100.00
2024-03-08T08:08:09.039Z,100.00
2024-03-08T08:10:35.678Z,100.00
2024-03-08T08:13:04.053Z,100.00
2024-03-08T08:15:33.816Z,100.00
2024-03-08T08:18:00.430Z,100.00
2024-03-08T08:20:28.386Z,100.00
2024-03-08T08:22:54.947Z,100.00
2024-03-08T08:25:21.943Z,100.00
2024-03-08T08:27:48.561Z,100.00
2024-03-08T08:30:15.541Z,100.00
2024-03-08T08:32:44.841Z,100.00
2024-03-08T08:35:11.478Z,100.00
2024-03-08T08:37:41.273Z,100.00
2024-03-08T08:40:08.873Z,100.00
2024-03-08T08:42:35.495Z,100.00
2024-03-08T08:45:11.538Z,100.00
2024-03-08T08:47:42.303Z,100.00
2024-03-08T08:50:09.676Z,100.00
2024-03-08T08:52:37.942Z,100.00
2024-03-08T08:55:07.562Z,100.00
2024-03-08T08:57:34.224Z,100.00
2024-03-08T09:00:00.789Z,100.00
2024-03-08T09:02:31.290Z,100.00
2024-03-08T09:04:58.128Z,100.00
2024-03-08T09:07:25.054Z,100.00
2024-03-08T09:09:54.221Z,100.00
2024-03-08T09:12:22.958Z,100.00
2024-03-08T09:14:49.690Z,100.00
2024-03-08T09:17:16.419Z,100.00
2024-03-08T09:19:52.096Z,100.00
2024-03-08T09:22:19.048Z,100.00
2024-03-08T09:24:45.687Z,100.00
2024-03-08T09:27:12.487Z,100.00
2024-03-08T09:29:41.836Z,100.00
2024-03-08T09:32:08.752Z,100.00
2024-03-08T09:34:37.943Z,100.00
2024-03-08T09:37:05.854Z,100.00
2024-03-08T09:39:33.689Z,100.00
2024-03-08T09:42:00.549Z,98.95
2024-03-08T09:44:28.732Z,100.00
2024-03-08T09:46:58.775Z,100.00
2024-03-08T09:49:25.684Z,97.16
2024-03-08T09:51:59.138Z,98.96
2024-03-08T09:54:26.865Z,97.97
2024-03-08T09:56:53.627Z,97.84
2024-03-08T09:59:20.443Z,96.84
2024-03-08T10:01:47.072Z,98.81
2024-03-08T10:04:15.251Z,98.53
2024-03-08T10:06:42.319Z,98.40
2024-03-08T10:09:08.980Z,98.32
2024-03-08T10:11:35.562Z,96.63
2024-03-08T10:14:02.450Z,97.92
2024-03-08T10:16:29.248Z,96.69
2024-03-08T10:18:57.760Z,98.08
2024-03-08T10:21:25.852Z,94.88
2024-03-08T10:23:52.491Z,98.03
2024-03-08T10:26:19.624Z,98.99
2024-03-08T10:28:47.631Z,98.77
2024-03-08T10:31:17.894Z,97.57
2024-03-08T10:33:46.366Z,94.40
2024-03-08T10:36:14.659Z,97.10
2024-03-08T10:38:43.810Z,95.23
2024-03-08T10:41:10.702Z,93.17
2024-03-08T10:43:57.692Z,92.56
2024-03-08T10:46:35.600Z,94.28
2024-03-08T10:49:07.728Z,92.99
2024-03-08T10:51:34.972Z,91.35
2024-03-08T10:54:04.480Z,90.72
2024-03-08T10:56:31.153Z,91.28
2024-03-08T10:58:57.845Z,90.23
2024-03-08T11:01:24.740Z,90.19
2024-03-08T11:03:51.519Z,92.18
2024-03-08T11:06:19.734Z,94.23
2024-03-08T11:08:47.439Z,89.96
2024-03-08T11:11:33.893Z,88.12
2024-03-08T11:14:02.386Z,88.36
2024-03-08T11:16:40.041Z,86.72
2024-03-08T11:19:23.616Z,87.08
2024-03-08T11:21:58.488Z,88.22
2024-03-08T11:24:25.159Z,90.27
2024-03-08T11:27:00.474Z,85.44
2024-03-08T11:29:37.770Z,85.06
2024-03-08T11:32:12.387Z,83.00
2024-03-08T11:34:41.516Z,84.60
2024-03-08T11:37:13.144Z,85.88
2024-03-08T11:39:40.549Z,84.78
2024-03-08T11:42:09.926Z,82.25
2024-03-08T11:44:36.737Z,84.12
2024-03-08T11:47:03.441Z,86.43
2024-03-08T11:49:32.315Z,85.99
2024-03-08T11:51:59.557Z,85.78
2024-03-08T11:54:26.394Z,83.00
2024-03-08T11:56:56.929Z,80.25
2024-03-08T11:59:24.904Z,80.26
2024-03-08T12:02:04.007Z,80.75
2024-03-08T12:04:30.997Z,77.74
2024-03-08T12:07:00.944Z,79.31
2024-03-08T12:09:29.178Z,81.21
2024-03-08T12:11:55.946Z,80.76
2024-03-08T12:14:22.713Z,80.30
2024-03-08T12:16:52.150Z,80.54
2024-03-08T12:19:19.082Z,79.72
2024-03-08T12:21:46.647Z,80.72
2024-03-08T12:24:18.271Z,81.75
2024-03-08T12:26:50.222Z,82.56
2024-03-08T12:29:41.083Z,81.96
2024-03-08T12:32:17.180Z,81.17
2024-03-08T12:34:52.684Z,79.79
2024-03-08T12:37:19.760Z,81.46
2024-03-08T12:39:47.483Z,80.92
2024-03-08T12:42:15.437Z,77.97
2024-03-08T12:44:48.456Z,77.18
2024-03-08T12:47:24.001Z,79.33
2024-03-08T12:49:50.855Z,79.41
2024-03-08T12:52:17.892Z,75.60
2024-03-08T12:54:44.484Z,74.67
2024-03-08T12:57:11.088Z,76.83
2024-03-08T12:59:37.751Z,74.73
2024-03-08T13:02:04.341Z,71.69
2024-03-08T13:04:32.569Z,72.34
2024-03-08T13:07:02.293Z,66.67
2024-03-08T13:09:28.900Z,63.08
2024-03-08T13:11:55.602Z,61.16
2024-03-08T13:14:22.264Z,56.89
2024-03-08T13:16:49.376Z,54.08
2024-03-08T13:19:16.584Z,54.54
2024-03-08T13:21:44.538Z,55.57
2024-03-08T13:24:11.129Z,52.58
2024-03-08T13:26:37.923Z,49.18
2024-03-08T13:29:04.800Z,47.53
2024-03-08T13:31:31.416Z,46.66
2024-03-08T13:33:58.066Z,48.82
2024-03-08T13:36:25.071Z,46.11
2024-03-08T13:38:53.002Z,44.00
2024-03-08T13:41:19.607Z,44.41
2024-03-08T13:43:48.015Z,46.13
2024-03-08T13:46:14.843Z,43.12
2024-03-08T13:48:41.465Z,43.27
2024-03-08T13:51:08.653Z,43.40
2024-03-08T13:53:35.335Z,43.96
2024-03-08T13:56:05.318Z,40.81
2024-03-08T13:58:32.224Z,41.79
2024-03-08T14:00:58.910Z,41.69
2024-03-08T14:03:25.489Z,42.85
2024-03-08T14:05:52.360Z,41.78
2024-03-08T14:08:18.952Z,40.60
2024-03-08T14:10:50.960Z,38.43
2024-03-08T14:17:01.128Z,33.33
2024-03-08T14:19:27.870Z,32.77
2024-03-08T14:21:57.353Z,33.51
2024-03-08T14:24:23.857Z,34.74
2024-03-08T14:26:50.555Z,32.79
2024-03-08T14:42:50.021Z,33.03
2024-03-08T14:45:17.213Z,34.26
2024-03-08T14:47:43.858Z,31.33
2024-03-08T14:50:10.502Z,31.07
2024-03-08T14:52:37.108Z,32.07
2024-03-08T14:55:06.656Z,32.13
2024-03-08T14:57:33.256Z,32.20
2024-03-08T15:00:01.206Z,29.26
2024-03-08T15:02:29.372Z,30.63
2024-03-08T15:04:56.031Z,29.76
2024-03-08T15:07:22.751Z,29.41
2024-03-08T15:09:49.320Z,32.04
2024-03-08T15:12:15.858Z,30.78
2024-03-08T15:14:42.423Z,29.32
2024-03-08T15:17:10.638Z,31.89
2024-03-08T15:19:37.325Z,31.04
2024-03-08T15:22:04.235Z,32.30
2024-03-08T15:24:30.936Z,33.88
2024-03-08T15:26:57.470Z,34.21
2024-03-08T15:29:24.007Z,34.91
2024-03-08T15:31:50.608Z,36.29
2024-03-08T15:34:18.999Z,37.47
2024-03-08T15:36:45.544Z,37.31
2024-03-08T15:39:12.035Z,38.22
2024-03-08T15:41:41.226Z,40.63
2024-03-08T15:44:26.195Z,41.34
2024-03-08T15:47:00.069Z,42.09
2024-03-08T15:49:47.422Z,45.21
2024-03-08T15:55:36.839Z,55.55
2024-03-08T15:58:20.208Z,54.97
2024-03-08T16:04:38.810Z,62.14
2024-03-08T16:07:07.147Z,64.59
2024-03-08T16:09:33.730Z,66.65
2024-03-08T16:12:02.906Z,67.62
2024-03-08T16:14:38.090Z,67.64
2024-03-08T16:17:17.717Z,68.27
2024-03-08T16:19:58.808Z,69.09
2024-03-08T16:22:26.857Z,69.60
2024-03-08T16:24:53.404Z,71.07
2024-03-08T16:27:20.150Z,72.72
2024-03-08T16:29:46.689Z,73.28
2024-03-08T16:32:13.409Z,76.28
2024-03-08T16:34:40.177Z,76.61
2024-03-08T16:37:07.106Z,78.96
2024-03-08T16:39:37.627Z,78.92
2024-03-08T16:42:04.457Z,81.10
2024-03-08T16:44:31.280Z,81.14
2024-03-08T16:47:01.006Z,82.26
2024-03-08T16:49:28.729Z,83.20
2024-03-08T16:51:55.305Z,83.35
2024-03-08T16:54:21.881Z,85.11
2024-03-08T16:56:50.015Z,84.36
2024-03-08T16:59:18.409Z,84.48
2024-03-08T17:01:45.488Z,87.84
2024-03-08T17:04:15.056Z,87.65
2024-03-08T17:06:41.762Z,88.77
2024-03-08T17:09:11.655Z,89.52
2024-03-08T17:11:38.961Z,90.56
2024-03-08T17:14:07.074Z,91.65
2024-03-08T17:16:33.853Z,91.76
2024-03-08T17:19:03.332Z,92.01
2024-03-08T17:21:29.876Z,91.91
2024-03-08T17:23:56.497Z,93.18
2024-03-08T17:26:23.194Z,93.86
2024-03-08T17:28:49.772Z,94.43
2024-03-08T17:31:17.955Z,93.77
2024-03-08T17:33:44.505Z,93.66
2024-03-08T17:36:13.962Z,92.44
2024-03-08T17:38:40.866Z,93.36
2024-03-08T17:41:08.515Z,92.80
2024-03-08T17:43:35.155Z,91.53
2024-03-08T17:46:02.274Z,91.81
2024-03-08T17:48:30.347Z,92.20
2024-03-08T17:50:57.026Z,91.66
2024-03-08T17:53:23.635Z,92.21
2024-03-08T17:55:50.451Z,91.62
2024-03-08T17:58:17.088Z,91.97
2024-03-08T18:00:43.917Z,92.79
2024-03-08T18:03:11.278Z,93.40
2024-03-08T18:05:39.514Z,93.91
2024-03-08T18:08:06.972Z,93.82
2024-03-08T18:10:37.890Z,94.66
2024-03-08T18:13:06.194Z,94.85
2024-03-08T18:15:32.833Z,95.52
2024-03-08T18:18:00.794Z,96.25
2024-03-08T18:20:29.111Z,96.91
2024-03-08T18:22:57.512Z,96.84
2024-03-08T18:25:24.300Z,96.25
2024-03-08T18:27:51.333Z,95.30
2024-03-08T18:30:18.066Z,95.75
2024-03-08T18:32:46.457Z,92.82
2024-03-08T18:35:13.182Z,93.63
2024-03-08T18:37:40.152Z,93.34
2024-03-08T18:40:09.320Z,93.55
2024-03-08T18:42:39.549Z,95.32
2024-03-08T18:45:07.895Z,95.47
2024-03-08T18:47:34.486Z,94.48
2024-03-08T18:50:01.321Z,96.73
2024-03-08T18:52:29.876Z,97.04
2024-03-08T18:55:01.233Z,97.75
2024-03-08T18:57:29.349Z,99.22
2024-03-08T18:59:56.049Z,97.48
2024-03-08T19:02:22.882Z,96.80
2024-03-08T19:04:49.740Z,96.81
2024-03-08T19:07:19.114Z,97.85
2024-03-08T19:09:45.757Z,99.67
2024-03-08T19:12:14.591Z,100.00
2024-03-08T19:14:42.669Z,100.00
2024-03-08T19:17:09.455Z,100.00
2024-03-08T19:19:36.441Z,100.00
2024-03-08T19:22:03.234Z,100.00
2024-03-08T19:24:30.191Z,100.00
2024-03-08T19:26:58.268Z,99.81
2024-03-08T19:29:25.101Z,100.00
2024-03-08T19:31:53.292Z,100.00
2024-03-08T19:34:20.167Z,100.00
2024-03-08T19:36:49.284Z,100.00
2024-03-08T19:39:16.034Z,100.00
2024-03-08T19:41:43.052Z,99.46
2024-03-08T19:44:12.517Z,98.64
2024-03-08T19:46:39.391Z,96.84
2024-03-08T19:49:07.666Z,96.29
2024-03-08T19:51:34.264Z,92.80
2024-03-08T19:54:01.214Z,93.93
2024-03-08T19:56:31.121Z,93.86
2024-03-08T19:58:57.794Z,92.79
2024-03-08T20:01:27.534Z,92.29
2024-03-08T20:03:54.117Z,91.77
2024-03-08T20:06:22.002Z,92.58
2024-03-08T20:08:48.729Z,91.21
2024-03-08T20:11:15.297Z,92.26
2024-03-08T20:13:43.256Z,92.60
2024-03-08T20:16:09.817Z,93.34
2024-03-08T20:18:39.449Z,93.66
2024-03-08T20:21:06.230Z,93.90
2024-03-08T20:23:34.260Z,93.87
2024-03-08T20:26:00.947Z,94.01
2024-03-08T20:28:27.682Z,93.89
2024-03-08T20:30:54.398Z,93.80
2024-03-08T20:33:20.891Z,93.89
2024-03-08T20:35:47.405Z,91.95
2024-03-08T20:38:13.961Z,92.48
2024-03-08T20:40:41.979Z,92.44
2024-03-08T20:43:09.224Z,91.67
2024-03-08T20:45:35.758Z,90.83
2024-03-08T20:48:02.276Z,88.84
2024-03-08T20:50:28.880Z,89.02
2024-03-08T20:52:55.534Z,88.44
2024-03-08T20:55:22.254Z,86.90
2024-03-08T20:57:50.972Z,87.07
2024-03-08T21:00:18.401Z,86.76
2024-03-08T21:02:44.976Z,87.35
2024-03-08T21:05:11.541Z,88.10
2024-03-08T21:07:38.160Z,88.59
2024-03-08T21:10:05.655Z,89.29
2024-03-08T21:12:33.990Z,89.94
2024-03-08T21:15:02.183Z,89.69
2024-03-08T21:17:28.700Z,89.65
2024-03-08T21:19:55.328Z,89.03
2024-03-08T21:22:21.936Z,88.99
2024-03-08T21:24:48.534Z,88.98
2024-03-08T21:27:15.047Z,90.33
2024-03-08T21:29:41.562Z,91.71
2024-03-08T21:32:09.778Z,92.00
2024-03-08T21:34:40.024Z,93.48
2024-03-08T21:37:06.549Z,91.81
2024-03-08T21:39:33.177Z,91.19
2024-03-08T21:41:59.805Z,91.86
2024-03-08T21:44:27.283Z,93.44
2024-03-08T21:46:53.830Z,95.49
2024-03-08T21:49:23.957Z,96.05
2024-03-08T21:51:50.636Z,97.32
2024-03-08T21:54:17.168Z,98.00
2024-03-08T21:56:43.696Z,98.69
2024-03-08T21:59:10.344Z,100.00
2024-03-08T22:01:36.991Z,100.00
2024-03-08T22:04:03.679Z,99.10
2024-03-08T22:06:32.042Z,100.00
2024-03-08T22:08:58.684Z,100.00
2024-03-08T22:11:25.305Z,100.00
2024-03-08T22:13:51.923Z,100.00
2024-03-08T22:16:18.498Z,100.00
2024-03-08T22:18:45.034Z,100.00
2024-03-08T22:21:11.763Z,100.00
2024-03-08T22:23:39.958Z,100.00
2024-03-08T22:26:06.614Z,100.00
2024-03-08T22:28:33.295Z,100.00
2024-03-08T22:31:02.937Z,100.00
2024-03-08T22:33:29.566Z,100.00
2024-03-08T22:35:56.105Z,100.00
2024-03-08T22:38:23.062Z,100.00
2024-03-08T22:40:51.198Z,100.00
2024-03-08T22:43:17.828Z,100.00
2024-03-08T22:45:44.457Z,100.00
2024-03-08T22:48:11.021Z,100.00
2024-03-08T22:50:37.558Z,100.00
2024-03-08T22:53:04.533Z,100.00
2024-03-08T22:55:31.291Z,100.00
2024-03-08T22:57:59.148Z,100.00
2024-03-08T23:00:26.939Z,100.00
2024-03-08T23:02:56.546Z,100.00
2024-03-08T23:05:24.199Z,100.00
2024-03-08T23:07:51.208Z,100.00
2024-03-08T23:10:17.938Z,100.00
2024-03-08T23:12:44.807Z,100.00
2024-03-08T23:15:13.236Z,100.00
2024-03-08T23:17:41.141Z,100.00
2024-03-08T23:20:08.831Z,100.00
2024-03-08T23:22:35.371Z,100.00
2024-03-08T23:25:03.989Z,100.00
2024-03-08T23:27:30.537Z,100.00
2024-03-08T23:29:57.055Z,100.00
2024-03-08T23:32:24.915Z,100.00
2024-03-08T23:34:51.544Z,100.00
2024-03-08T23:37:18.109Z,100.00
2024-03-08T23:39:44.688Z,100.00
2024-03-08T23:42:11.221Z,100.00
2024-03-08T23:44:40.736Z,100.00
2024-03-08T23:47:08.494Z,100.00
2024-03-08T23:49:36.482Z,100.00
2024-03-08T23:52:03.286Z,100.00
2024-03-08T23:54:29.807Z,100.00
2024-03-08T23:56:56.337Z,100.00
2024-03-08T23:59:22.979Z,100.00
